Nearby METAR Reports

 

KRYN - Tucson/Ryan Fld, Arizona, USA
Distance from station: SSW 16mi, 26km
Updated: Mon, 21-Aug-2017 7:45pm MST
NOT Current
Clear
Clear
 Wind from NNW
Wind: NNW 6 mph , 9 km/h
Temperature: 88°F , 31°C
Dew Point: 52°F , 11°C
Humidity: 29%
Barometer: 29.98 inHg , 1015.2 hPa
Clouds: Clear
Visibility: 10 miles , 16 km
2017/08/22 02:45 KRYN 220245Z 34005KT 10SM CLR 31/11 A2998
KTUS - Tucson, Arizona, USA
Distance from station: SSE 18mi, 28km
Updated: Tue, 22-Aug-2017 3:53am MST
Clear
Clear
 Wind from S
Wind: S 8 mph , 13 km/h
Temperature: 77°F , 25°C
Dew Point: 54°F , 12°C
Humidity: 44%
Barometer: 30.03 inHg , 1016.9 hPa
Clouds: Clear
Visibility: 10 miles , 16 km
2017/08/22 10:53 KTUS 221053Z AUTO 17007KT 10SM CLR 25/12 A3003 RMK ZAB FDCS & TUS TWR
 
KDMA - Davis/Tucson, Arizona, USA
Distance from station: SE 18mi, 29km
Updated: Tue, 22-Aug-2017 3:58am MST
Partly cloudy
Partly cloudy
 Wind from E
Wind: E 6 mph , 9 km/h
Temperature: 77°F , 25°C
Dew Point: 54°F , 12°C
Humidity: 44%
Barometer: 30.03 inHg , 1016.9 hPa
Clouds: Partly cloudy
Visibility: 10 miles , 16 km
Cloud details: Few Clouds 12000 ft
Partly cloudy 14000 ft
2017/08/22 10:58 KDMA 221058Z AUTO 10005KT 10SM FEW120 SCT140 25/12 A3003 RMK AO2 SLP120 T02480124 $
KCGZ - Casa Granda, Arizona, USA
Distance from station: NW 57mi, 92km
Updated: Tue, 22-Aug-2017 3:56am MST
Clear
Clear
 Wind from calm
Wind: Calm
Temperature: 81°F , 27°C
Heat Index: 81°F , 27°C
Dew Point: 57°F , 14°C
Humidity: 45%
Barometer: 29.94 inHg , 1013.9 hPa
Clouds: Clear
Visibility: 10 miles , 16 km
2017/08/22 10:56 KCGZ 221056Z AUTO 00000KT 10SM CLR 27/14 A2994 RMK AO2 SLP119 T02670144 $
 
KALK - Pioneer Airfield, Arizona, USA
Distance from station: SE 65mi, 104km
Updated: Tue, 22-Aug-2017 3:56am MST
Few Clouds
Few Clouds
 Wind from SW
Wind: SW 6 mph , 9 km/h
Temperature: 70°F , 21°C
Dew Point: 52°F , 11°C
Humidity: 53%
Barometer: 30.20 inHg , 1022.7 hPa
Clouds: Few Clouds
Visibility: 10 miles , 16 km
Cloud details: Few Clouds 11000 ft
2017/08/22 10:56 KALK 221056Z AUTO 23005KT 10SM FEW110 21/11 A3020 RMK AO2 SLP130 T02060111
KOLS - Nogales, Arizona, USA
Distance from station: S 67mi, 108km
Updated: Tue, 22-Aug-2017 3:54am MST
Clear
Clear
 Wind from NE
Wind: NE 5 mph , 7 km/h
Temperature: 68°F , 20°C
Dew Point: 61°F , 16°C
Humidity: 78%
Barometer: 30.13 inHg , 1020.3 hPa
Clouds: Clear
Visibility: 10 miles , 16 km
2017/08/22 10:54 KOLS 221054Z AUTO 05004KT 10SM CLR 20/16 A3013 RMK AO2 SLP132 T02000156
 
KFHU - Fort Huachuca, Arizona, USA
Distance from station: SE 69mi, 110km
Updated: Tue, 22-Aug-2017 3:58am MST
Clear
Clear
 Wind from SW
Wind: SW 7 mph , 11 km/h
Temperature: 72°F , 22°C
Dew Point: 52°F , 11°C
Humidity: 50%
Barometer: 30.19 inHg , 1022.4 hPa
Clouds: Clear
Visibility: 10 miles , 16 km
2017/08/22 10:58 KFHU 221058Z AUTO 23006KT 10SM CLR 22/11 A3019 RMK AO2 SLP143 T02170109
KIWA - Chandler/Mesa, Arizona, USA
Distance from station: NNW 73mi, 117km
Updated: Tue, 22-Aug-2017 3:55am MST
Clear
Clear
 Wind from SE
Wind: SE 6 mph , 9 km/h
Temperature: 75°F , 24°C
Dew Point: 54°F , 12°C
Humidity: 47%
Barometer: 29.93 inHg , 1013.5 hPa
Clouds: Clear
Visibility: 10 miles , 16 km
2017/08/22 10:55 KIWA 221055Z AUTO 14005KT 10SM CLR 24/12 A2993 RMK AO2